Time;durP1;ratioP1;P1;durP2;ratioP2;P2;SDS_P1;SDS_P2;PMS_P1;PMS_P2;Temp;Humidity;BMP_temperature;BMP_pressure;BME280_temperature;BME280_humidity;BME280_pressure;Samples;Min_cycle;Max_cycle;Signal;HPM_P1;HPM_P2
2023/03/02 00:00:59;;;;;;;5.10;4.53;;;;;;;;;;5016107;28;20116;-82
2023/03/02 00:03:25;;;;;;;4.90;4.07;;;;;;;;;;5033717;28;20509;-82
2023/03/02 00:05:52;;;;;;;4.82;4.05;;;;;;;;;;5015804;28;20108;-82
2023/03/02 00:08:18;;;;;;;5.47;4.68;;;;;;;;;;5015636;28;20032;-82
2023/03/02 00:10:43;;;;;;;6.97;5.05;;;;;;;;;;4999087;28;20033;-82
2023/03/02 00:13:10;;;;;;;4.90;4.15;;;;;;;;;;5016214;28;20116;-82
2023/03/02 00:15:35;;;;;;;6.03;4.45;;;;;;;;;;4998992;28;20518;-82
2023/03/02 00:18:00;;;;;;;5.72;4.18;;;;;;;;;;5015499;28;20063;-83
2023/03/02 00:20:26;;;;;;;7.53;4.43;;;;;;;;;;5032595;28;20494;-82
2023/03/02 00:22:51;;;;;;;6.55;4.45;;;;;;;;;;5014926;28;20030;-82
2023/03/02 00:25:17;;;;;;;5.40;4.25;;;;;;;;;;5015287;28;20040;-82
2023/03/02 00:27:43;;;;;;;7.03;4.57;;;;;;;;;;4983002;28;20040;-82
2023/03/02 00:30:10;;;;;;;5.97;4.53;;;;;;;;;;5015328;28;20365;-82
2023/03/02 00:32:35;;;;;;;5.57;4.50;;;;;;;;;;4998754;28;20022;-82
2023/03/02 00:35:01;;;;;;;5.32;4.38;;;;;;;;;;5016830;28;20511;-82
2023/03/02 00:37:26;;;;;;;5.60;4.68;;;;;;;;;;5015442;28;20034;-82
2023/03/02 00:39:52;;;;;;;5.47;4.80;;;;;;;;;;4999615;28;20077;-82
2023/03/02 00:42:18;;;;;;;6.20;4.90;;;;;;;;;;5015581;28;20032;-81
2023/03/02 00:44:43;;;;;;;6.15;4.70;;;;;;;;;;4983236;28;20025;-82
2023/03/02 00:47:08;;;;;;;5.15;4.38;;;;;;;;;;4998339;28;20110;-82
2023/03/02 00:49:35;;;;;;;6.10;4.25;;;;;;;;;;4998774;28;20407;-82
2023/03/02 00:52:01;;;;;;;5.65;4.60;;;;;;;;;;5015862;28;20025;-82
2023/03/02 00:54:26;;;;;;;5.65;4.95;;;;;;;;;;5015330;28;20108;-82
2023/03/02 00:56:52;;;;;;;5.57;4.47;;;;;;;;;;5032745;28;20107;-82
2023/03/02 00:59:26;;;;;;;8.23;4.95;;;;;;;;;;5014996;28;20033;-82
2023/03/02 01:01:59;;;;;;;4.88;4.38;;;;;;;;;;5016682;28;20377;-82
2023/03/02 01:04:31;;;;;;;5.50;4.53;;;;;;;;;;5016019;28;20036;-82
2023/03/02 01:06:58;;;;;;;6.93;4.88;;;;;;;;;;5015502;28;20025;-83
2023/03/02 01:09:23;;;;;;;5.63;4.65;;;;;;;;;;4998495;28;20038;-82
2023/03/02 01:11:49;;;;;;;5.95;4.78;;;;;;;;;;5015312;28;20034;-82
2023/03/02 01:14:14;;;;;;;5.85;5.05;;;;;;;;;;5014904;28;20034;-82
2023/03/02 01:16:40;;;;;;;7.03;4.95;;;;;;;;;;5014898;28;20057;-82
2023/03/02 01:19:05;;;;;;;5.45;4.95;;;;;;;;;;5015674;28;20029;-82
2023/03/02 01:21:31;;;;;;;7.05;5.13;;;;;;;;;;5014823;28;20029;-82
2023/03/02 01:23:56;;;;;;;6.65;5.32;;;;;;;;;;5015191;28;20089;-82
2023/03/02 01:26:22;;;;;;;7.00;5.20;;;;;;;;;;5032505;28;20516;-82
2023/03/02 01:28:47;;;;;;;6.00;4.90;;;;;;;;;;4998425;28;20025;-82
2023/03/02 01:31:12;;;;;;;6.10;4.97;;;;;;;;;;4998510;28;20033;-82
2023/03/02 01:33:38;;;;;;;6.40;5.18;;;;;;;;;;5017282;28;20029;-83
2023/03/02 01:36:03;;;;;;;7.32;5.38;;;;;;;;;;5018983;28;20040;-82
2023/03/02 01:38:29;;;;;;;7.30;5.47;;;;;;;;;;5018261;28;20034;-83
2023/03/02 01:40:54;;;;;;;5.97;5.22;;;;;;;;;;5036374;28;20044;-83
2023/03/02 01:43:20;;;;;;;5.60;4.97;;;;;;;;;;5035718;28;20352;-83
2023/03/02 01:46:02;;;;;;;7.60;5.60;;;;;;;;;;5035843;28;20135;-82
2023/03/02 01:48:47;;;;;;;7.20;5.88;;;;;;;;;;5002086;28;20152;-82
2023/03/02 01:51:20;;;;;;;6.50;5.78;;;;;;;;;;5017945;28;20164;-82
2023/03/02 01:53:48;;;;;;;6.72;5.60;;;;;;;;;;5017967;28;20482;-82
2023/03/02 01:56:15;;;;;;;7.15;5.60;;;;;;;;;;5018092;28;20045;-82
2023/03/02 01:58:41;;;;;;;7.38;6.00;;;;;;;;;;5017748;28;20063;-83
2023/03/02 02:01:14;;;;;;;6.88;5.82;;;;;;;;;;5017855;28;20108;-83
2023/03/02 02:03:41;;;;;;;7.10;5.82;;;;;;;;;;5035782;28;20053;-83
2023/03/02 02:06:36;;;;;;;7.53;5.72;;;;;;;;;;5001448;28;20018;-82
2023/03/02 02:09:01;;;;;;;;;;;;;;;;;;5018224;28;20021;-82
2023/03/02 02:11:26;;;;;;;6.78;5.13;;;;;;;;;;5001151;28;20295;-82
2023/03/02 02:13:56;;;;;;;6.32;5.65;;;;;;;;;;5033829;28;20128;-83
2023/03/02 02:16:21;;;;;;;6.45;5.70;;;;;;;;;;5018342;28;20104;-83
2023/03/02 02:18:46;;;;;;;7.63;5.43;;;;;;;;;;5017686;28;20433;-83
2023/03/02 02:21:12;;;;;;;6.70;5.70;;;;;;;;;;5001043;28;20038;-83
2023/03/02 02:23:37;;;;;;;7.00;5.63;;;;;;;;;;5001335;28;20040;-83
2023/03/02 02:26:12;;;;;;;6.80;5.70;;;;;;;;;;5035450;28;20026;-83
2023/03/02 02:28:56;;;;;;;6.57;5.65;;;;;;;;;;5033705;28;20025;-83
2023/03/02 02:31:26;;;;;;;6.18;5.18;;;;;;;;;;5001289;28;20564;-83
2023/03/02 02:33:57;;;;;;;6.05;5.30;;;;;;;;;;5017370;28;20057;-83
2023/03/02 02:36:26;;;;;;;6.53;5.80;;;;;;;;;;5017345;28;20029;-82
2023/03/02 02:38:53;;;;;;;7.10;5.30;;;;;;;;;;5017092;28;20075;-82
2023/03/02 02:41:30;;;;;;;6.13;5.47;;;;;;;;;;5017159;28;20041;-83
2023/03/02 02:43:56;;;;;;;6.57;5.45;;;;;;;;;;5016101;28;20026;-85
2023/03/02 02:46:22;;;;;;;5.97;5.10;;;;;;;;;;5000414;28;20467;-84
2023/03/02 02:48:47;;;;;;;6.40;5.47;;;;;;;;;;5017382;28;20041;-84
2023/03/02 02:51:19;;;;;;;5.93;5.32;;;;;;;;;;5017094;28;20026;-84
2023/03/02 02:53:57;;;;;;;7.15;5.70;;;;;;;;;;5034368;28;20369;-84
2023/03/02 02:56:24;;;;;;;5.70;5.15;;;;;;;;;;5017755;28;20041;-83
2023/03/02 02:58:52;;;;;;;6.45;5.40;;;;;;;;;;5016691;28;20034;-84
2023/03/02 03:01:19;;;;;;;5.97;5.35;;;;;;;;;;5000114;28;20017;-83
2023/03/02 03:03:51;;;;;;;6.75;5.82;;;;;;;;;;5017032;28;20079;-83
2023/03/02 03:06:20;;;;;;;6.28;5.53;;;;;;;;;;5016888;28;20024;-84
2023/03/02 03:08:45;;;;;;;6.28;5.60;;;;;;;;;;5016501;28;20171;-83
2023/03/02 03:11:13;;;;;;;6.38;5.55;;;;;;;;;;5016409;28;20507;-84
2023/03/02 03:13:40;;;;;;;7.03;5.60;;;;;;;;;;5016591;28;20044;-83
2023/03/02 03:16:08;;;;;;;6.03;5.40;;;;;;;;;;5000413;28;20026;-81
2023/03/02 03:18:34;;;;;;;6.65;5.47;;;;;;;;;;5016822;28;20468;-84
2023/03/02 03:20:59;;;;;;;6.38;5.50;;;;;;;;;;5000309;28;20061;-84
2023/03/02 03:23:25;;;;;;;6.88;5.45;;;;;;;;;;5016328;28;20114;-83
2023/03/02 03:25:50;;;;;;;6.30;5.38;;;;;;;;;;5016506;28;20392;-83
2023/03/02 03:28:16;;;;;;;6.22;5.55;;;;;;;;;;5033899;28;20087;-83
2023/03/02 03:30:43;;;;;;;6.25;5.60;;;;;;;;;;5034438;28;20076;-83
2023/03/02 03:33:13;;;;;;;7.90;5.75;;;;;;;;;;5016343;28;20041;-82
2023/03/02 03:35:39;;;;;;;6.40;5.07;;;;;;;;;;5016181;28;20056;-82
2023/03/02 03:38:05;;;;;;;6.97;5.18;;;;;;;;;;5034221;28;20114;-82
2023/03/02 03:40:33;;;;;;;7.00;5.63;;;;;;;;;;5015719;28;20052;-83
2023/03/02 03:42:59;;;;;;;5.80;5.20;;;;;;;;;;4999929;28;20029;-83
2023/03/02 03:45:25;;;;;;;5.95;5.05;;;;;;;;;;5015846;28;20075;-83
2023/03/02 03:47:50;;;;;;;6.28;4.90;;;;;;;;;;5015132;28;20041;-83
2023/03/02 03:50:15;;;;;;;6.65;5.22;;;;;;;;;;4999817;28;20033;-83
2023/03/02 03:52:41;;;;;;;5.93;5.30;;;;;;;;;;5015494;28;20495;-83
2023/03/02 03:55:07;;;;;;;6.32;5.40;;;;;;;;;;5016342;28;20491;-83
2023/03/02 03:57:32;;;;;;;5.88;5.28;;;;;;;;;;5015868;28;20045;-83
2023/03/02 03:59:57;;;;;;;7.28;5.35;;;;;;;;;;5015238;28;20032;-83
2023/03/02 04:02:23;;;;;;;7.53;5.10;;;;;;;;;;4999114;28;20369;-83
2023/03/02 04:04:49;;;;;;;5.55;4.95;;;;;;;;;;4999316;28;20033;-83
2023/03/02 04:07:14;;;;;;;6.55;5.70;;;;;;;;;;4999573;28;20036;-84
2023/03/02 04:09:40;;;;;;;5.85;4.60;;;;;;;;;;4999534;28;20021;-83
2023/03/02 04:12:06;;;;;;;6.22;5.43;;;;;;;;;;5033087;28;20044;-83
2023/03/02 04:14:32;;;;;;;5.25;4.75;;;;;;;;;;4999498;28;20084;-84
2023/03/02 04:16:57;;;;;;;6.60;5.22;;;;;;;;;;4999555;28;20029;-84
2023/03/02 04:19:23;;;;;;;5.32;4.78;;;;;;;;;;5015942;28;20033;-84
2023/03/02 04:21:52;;;;;;;5.82;4.85;;;;;;;;;;5015780;28;20483;-84
2023/03/02 04:24:19;;;;;;;5.47;4.72;;;;;;;;;;5015387;28;20026;-83
2023/03/02 04:26:45;;;;;;;5.53;4.75;;;;;;;;;;4999473;28;20116;-83
2023/03/02 04:29:12;;;;;;;6.25;5.05;;;;;;;;;;5015451;28;20072;-83
2023/03/02 04:31:37;;;;;;;6.03;4.95;;;;;;;;;;4999290;28;20033;-83
2023/03/02 04:34:04;;;;;;;6.15;4.93;;;;;;;;;;5033418;28;20096;-83
2023/03/02 04:36:31;;;;;;;6.13;4.72;;;;;;;;;;5015821;28;20035;-82
2023/03/02 04:38:57;;;;;;;6.28;4.70;;;;;;;;;;4999057;28;20476;-83
2023/03/02 04:41:22;;;;;;;5.63;4.95;;;;;;;;;;4999519;28;20087;-83
2023/03/02 04:43:48;;;;;;;6.47;5.07;;;;;;;;;;4998930;28;20030;-83
2023/03/02 04:46:15;;;;;;;6.20;5.03;;;;;;;;;;4998676;28;20045;-83
2023/03/02 04:48:40;;;;;;;4.93;4.43;;;;;;;;;;4998934;28;20038;-83
2023/03/02 04:51:05;;;;;;;5.70;4.72;;;;;;;;;;5015478;28;20038;-83
2023/03/02 04:53:31;;;;;;;6.93;5.00;;;;;;;;;;5032736;28;20029;-83
2023/03/02 04:55:56;;;;;;;6.28;5.15;;;;;;;;;;5015961;28;20039;-83
2023/03/02 04:58:22;;;;;;;6.30;5.13;;;;;;;;;;4998821;28;20376;-83
2023/03/02 05:00:47;;;;;;;5.57;5.00;;;;;;;;;;5014979;28;20060;-83
2023/03/02 05:03:12;;;;;;;8.23;5.05;;;;;;;;;;5015636;28;20493;-83
2023/03/02 05:05:38;;;;;;;6.18;4.80;;;;;;;;;;5016106;28;20040;-82
2023/03/02 05:08:03;;;;;;;6.63;5.00;;;;;;;;;;5001036;28;20065;-83
2023/03/02 05:10:29;;;;;;;5.80;4.65;;;;;;;;;;5019478;28;20041;-83
2023/03/02 05:12:57;;;;;;;6.00;4.88;;;;;;;;;;5036575;28;20030;-83
2023/03/02 05:15:29;;;;;;;6.22;5.13;;;;;;;;;;5003062;28;20033;-83
2023/03/02 05:17:54;;;;;;;7.60;5.22;;;;;;;;;;5019640;28;20033;-83
2023/03/02 05:20:20;;;;;;;6.70;5.28;;;;;;;;;;5036788;28;20079;-82
2023/03/02 05:22:46;;;;;;;6.30;5.35;;;;;;;;;;5002579;28;20025;-83
2023/03/02 05:25:11;;;;;;;6.47;5.10;;;;;;;;;;5002489;28;20472;-81
2023/03/02 05:27:37;;;;;;;6.03;4.72;;;;;;;;;;5018970;28;20034;-82
2023/03/02 05:30:04;;;;;;;6.88;5.40;;;;;;;;;;5002240;28;20037;-82
2023/03/02 05:32:29;;;;;;;6.95;5.50;;;;;;;;;;5002080;28;20078;-82
2023/03/02 05:34:55;;;;;;;6.85;5.43;;;;;;;;;;5018856;28;20387;-81
2023/03/02 05:37:20;;;;;;;6.55;5.13;;;;;;;;;;5019376;28;20038;-80
2023/03/02 05:39:45;;;;;;;6.75;5.10;;;;;;;;;;5002336;28;20036;-82
2023/03/02 05:42:11;;;;;;;7.22;4.80;;;;;;;;;;5002172;28;20534;-81
2023/03/02 05:44:36;;;;;;;7.30;5.05;;;;;;;;;;5036213;28;20025;-81
2023/03/02 05:47:02;;;;;;;14.10;5.70;;;;;;;;;;5036064;28;20496;-81
2023/03/02 05:49:27;;;;;;;9.88;5.82;;;;;;;;;;5018298;28;20095;-80
2023/03/02 05:51:52;;;;;;;10.27;5.38;;;;;;;;;;5002422;28;20033;-80
2023/03/02 05:54:18;;;;;;;11.65;6.18;;;;;;;;;;5002726;28;20029;-82
2023/03/02 05:56:43;;;;;;;15.88;6.50;;;;;;;;;;5035147;28;20033;-80
2023/03/02 05:59:09;;;;;;;9.93;5.40;;;;;;;;;;5019584;28;20026;-81
2023/03/02 06:01:35;;;;;;;15.43;5.30;;;;;;;;;;5036115;28;20098;-79
2023/03/02 06:04:01;;;;;;;8.95;4.95;;;;;;;;;;5035893;28;20056;-80
2023/03/02 06:06:27;;;;;;;10.52;4.93;;;;;;;;;;5002131;28;20481;-81
2023/03/02 06:08:52;;;;;;;13.68;6.43;;;;;;;;;;5019056;28;20087;-80
2023/03/02 06:11:17;;;;;;;15.48;7.03;;;;;;;;;;5018119;28;20021;-82
2023/03/02 06:13:43;;;;;;;15.38;6.18;;;;;;;;;;5002221;28;20076;-81
2023/03/02 06:16:08;;;;;;;15.57;6.22;;;;;;;;;;5018454;28;20025;-80
2023/03/02 06:18:34;;;;;;;17.00;6.15;;;;;;;;;;5001613;28;20032;-80
2023/03/02 06:20:59;;;;;;;18.65;6.65;;;;;;;;;;5035464;28;20037;-80
2023/03/02 06:23:25;;;;;;;18.83;7.63;;;;;;;;;;5035336;28;20032;-80
2023/03/02 06:25:50;;;;;;;24.40;7.60;;;;;;;;;;5001254;28;20032;-81
2023/03/02 06:28:18;;;;;;;19.25;7.00;;;;;;;;;;5017772;28;20030;-80
2023/03/02 06:30:44;;;;;;;11.93;6.82;;;;;;;;;;5018151;28;20021;-80
2023/03/02 06:33:09;;;;;;;15.75;7.05;;;;;;;;;;5017339;28;20468;-79
2023/03/02 06:35:35;;;;;;;19.73;6.90;;;;;;;;;;5017673;28;20104;-80
2023/03/02 06:38:00;;;;;;;14.23;6.53;;;;;;;;;;5017325;28;20396;-80
2023/03/02 06:40:26;;;;;;;17.33;6.90;;;;;;;;;;5017471;28;20090;-81
2023/03/02 06:42:51;;;;;;;12.85;6.53;;;;;;;;;;5035016;28;20490;-80
2023/03/02 06:45:16;;;;;;;10.82;6.18;;;;;;;;;;5035159;28;20460;-81
2023/03/02 06:47:42;;;;;;;13.38;6.15;;;;;;;;;;5033629;28;20057;-80
2023/03/02 06:50:08;;;;;;;11.73;5.50;;;;;;;;;;5017161;28;20063;-80
2023/03/02 06:52:34;;;;;;;21.75;6.60;;;;;;;;;;5017117;28;20033;-80
2023/03/02 06:54:59;;;;;;;14.38;6.45;;;;;;;;;;5000658;28;20503;-81
2023/03/02 06:57:32;;;;;;;11.68;6.25;;;;;;;;;;5000667;28;20034;-80
2023/03/02 06:59:58;;;;;;;10.15;6.13;;;;;;;;;;5018062;28;20035;-80
2023/03/02 07:02:23;;;;;;;9.77;5.63;;;;;;;;;;5000394;28;20465;-80
2023/03/02 07:04:49;;;;;;;10.02;5.90;;;;;;;;;;5035182;28;20032;-80
2023/03/02 07:07:14;;;;;;;9.48;5.82;;;;;;;;;;5018985;28;20034;-86
2023/03/02 07:09:40;;;;;;;9.02;5.25;;;;;;;;;;5005345;28;20041;-82
2023/03/02 07:12:09;;;;;;;9.65;5.53;;;;;;;;;;5015505;28;20125;-81
2023/03/02 07:14:35;;;;;;;10.15;5.22;;;;;;;;;;4969895;28;20034;-85
2023/03/02 07:17:03;;;;;;;8.40;5.43;;;;;;;;;;4984510;28;20068;-85
2023/03/02 07:19:28;;;;;;;9.68;4.95;;;;;;;;;;4986748;28;20034;-85
2023/03/02 07:21:54;;;;;;;9.00;5.22;;;;;;;;;;4991269;28;20022;-86
2023/03/02 07:24:19;;;;;;;7.15;4.97;;;;;;;;;;4980620;28;20085;-83
2023/03/02 07:26:45;;;;;;;6.80;5.15;;;;;;;;;;4966291;28;20084;-84
2023/03/02 07:29:10;;;;;;;7.25;5.05;;;;;;;;;;4981892;28;20026;-84
2023/03/02 07:31:36;;;;;;;7.25;4.88;;;;;;;;;;4992888;28;20034;-85
2023/03/02 07:34:01;;;;;;;10.40;5.18;;;;;;;;;;5017083;28;20115;-85
2023/03/02 07:36:26;;;;;;;8.05;4.38;;;;;;;;;;4976797;28;20113;-85
2023/03/02 07:38:53;;;;;;;7.55;4.82;;;;;;;;;;4986405;28;20041;-87
2023/03/02 07:41:19;;;;;;;9.45;4.53;;;;;;;;;;4955133;28;20038;-84
2023/03/02 07:43:44;;;;;;;5.50;4.18;;;;;;;;;;4994312;28;20041;-82
2023/03/02 07:46:09;;;;;;;5.75;4.05;;;;;;;;;;5008625;28;20539;-83
2023/03/02 07:48:35;;;;;;;6.05;4.43;;;;;;;;;;4985314;28;20037;-83
2023/03/02 07:51:02;;;;;;;5.88;4.32;;;;;;;;;;4978092;28;20112;-83
2023/03/02 07:53:29;;;;;;;10.95;4.70;;;;;;;;;;4973298;28;20037;-81
2023/03/02 07:55:55;;;;;;;4.25;3.85;;;;;;;;;;4981246;28;20100;-84
2023/03/02 07:58:20;;;;;;;7.57;4.53;;;;;;;;;;4986506;28;20089;-84
2023/03/02 08:00:46;;;;;;;8.18;4.93;;;;;;;;;;5013684;28;20053;-82
2023/03/02 08:03:12;;;;;;;6.07;3.88;;;;;;;;;;4997235;28;20052;-82
2023/03/02 08:05:37;;;;;;;5.32;3.63;;;;;;;;;;4983377;28;20025;-84
2023/03/02 08:08:03;;;;;;;6.13;4.38;;;;;;;;;;4982674;28;20034;-84
2023/03/02 08:10:28;;;;;;;6.38;4.05;;;;;;;;;;4982368;28;20495;-81
2023/03/02 08:12:54;;;;;;;4.78;4.00;;;;;;;;;;5018796;28;20034;-82
2023/03/02 08:15:19;;;;;;;7.18;4.38;;;;;;;;;;4983637;28;20432;-81
2023/03/02 08:17:45;;;;;;;5.22;4.30;;;;;;;;;;4981779;28;20033;-81
2023/03/02 08:20:11;;;;;;;4.93;3.95;;;;;;;;;;4980485;28;20037;-82
2023/03/02 08:22:36;;;;;;;6.20;3.80;;;;;;;;;;4977359;28;20057;-81
2023/03/02 08:25:02;;;;;;;5.82;4.25;;;;;;;;;;4977921;28;20375;-82
2023/03/02 08:27:28;;;;;;;4.65;3.72;;;;;;;;;;4979766;28;20034;-79
2023/03/02 08:29:54;;;;;;;5.03;4.05;;;;;;;;;;4964598;28;20087;-82
2023/03/02 08:32:20;;;;;;;5.10;3.83;;;;;;;;;;4997220;28;20513;-78
2023/03/02 08:34:50;;;;;;;6.07;4.05;;;;;;;;;;4995777;28;20025;-80
2023/03/02 08:37:15;;;;;;;4.50;3.78;;;;;;;;;;4988528;28;20501;-82
2023/03/02 08:39:40;;;;;;;5.43;3.97;;;;;;;;;;4993519;28;20038;-84
2023/03/02 08:42:07;;;;;;;5.63;4.22;;;;;;;;;;4992559;28;20033;-82
2023/03/02 08:44:32;;;;;;;6.22;4.30;;;;;;;;;;4996775;28;20038;-82
2023/03/02 08:46:58;;;;;;;4.63;3.80;;;;;;;;;;5004302;28;20058;-85
2023/03/02 08:49:24;;;;;;;4.60;3.75;;;;;;;;;;5015631;28;20400;-83
2023/03/02 08:51:52;;;;;;;5.93;4.22;;;;;;;;;;4983611;28;20033;-84
2023/03/02 08:54:19;;;;;;;5.07;4.03;;;;;;;;;;5000326;28;20116;-83
2023/03/02 08:56:44;;;;;;;5.97;3.90;;;;;;;;;;4979234;28;20441;-83
2023/03/02 08:59:11;;;;;;;5.85;3.70;;;;;;;;;;4971600;28;20128;-84
2023/03/02 09:01:38;;;;;;;5.35;4.05;;;;;;;;;;4989037;28;20076;-84
2023/03/02 09:04:05;;;;;;;5.53;3.97;;;;;;;;;;4982640;28;20040;-83
2023/03/02 09:06:34;;;;;;;4.38;3.75;;;;;;;;;;4979824;28;20420;-83
2023/03/02 09:09:00;;;;;;;5.07;3.47;;;;;;;;;;4997837;28;20026;-83
2023/03/02 09:11:26;;;;;;;4.95;3.70;;;;;;;;;;4986788;28;20053;-81
2023/03/02 09:13:53;;;;;;;6.57;3.63;;;;;;;;;;4997822;28;20033;-82
2023/03/02 09:16:19;;;;;;;4.78;3.67;;;;;;;;;;4995372;28;20167;-85
2023/03/02 09:18:45;;;;;;;5.22;3.40;;;;;;;;;;4977445;28;20568;-82
2023/03/02 09:21:10;;;;;;;6.78;3.97;;;;;;;;;;4997031;28;20034;-82
2023/03/02 09:23:36;;;;;;;5.50;3.95;;;;;;;;;;4973174;28;20041;-84
2023/03/02 09:26:03;;;;;;;7.38;4.22;;;;;;;;;;4998453;28;20480;-86
2023/03/02 09:28:29;;;;;;;5.18;3.78;;;;;;;;;;4998840;28;20240;-81
2023/03/02 09:31:00;;;;;;;4.75;3.70;;;;;;;;;;4982354;28;20058;-83
2023/03/02 09:33:26;;;;;;;4.18;3.40;;;;;;;;;;4981647;28;20038;-84
2023/03/02 09:35:52;;;;;;;4.43;3.90;;;;;;;;;;4998242;28;20057;-83
2023/03/02 09:38:18;;;;;;;4.63;3.60;;;;;;;;;;5015649;28;20052;-82
2023/03/02 09:40:52;;;;;;;9.13;3.95;;;;;;;;;;4981428;28;20117;-83
2023/03/02 09:43:35;;;;;;;6.70;4.05;;;;;;;;;;5015716;28;20109;-83
2023/03/02 09:46:01;;;;;;;5.25;3.85;;;;;;;;;;4997974;28;20030;-83
2023/03/02 09:48:34;;;;;;;4.60;3.88;;;;;;;;;;4997668;28;20048;-83
2023/03/02 09:51:27;;;;;;;6.25;4.18;;;;;;;;;;4980222;28;20037;-83
2023/03/02 09:54:07;;;;;;;4.57;3.75;;;;;;;;;;4980951;28;20074;-82
2023/03/02 09:56:36;;;;;;;4.13;3.40;;;;;;;;;;4989332;28;20090;-82
2023/03/02 09:59:30;;;;;;;8.95;4.20;;;;;;;;;;4993911;28;20425;-82
2023/03/02 10:02:03;;;;;;;4.90;3.55;;;;;;;;;;4971453;28;20490;-84
2023/03/02 10:04:37;;;;;;;3.95;3.17;;;;;;;;;;4981685;28;20034;-82
2023/03/02 10:07:23;;;;;;;;;;;;;;;;;;4998175;28;20034;-84
2023/03/02 10:09:48;;;;;;;7.22;3.40;;;;;;;;;;5006561;28;19941;-81
2023/03/02 10:12:47;;;;;;;5.30;3.50;;;;;;;;;;4973605;28;20082;-80
2023/03/02 10:15:33;;;;;;;5.38;3.90;;;;;;;;;;5012772;28;20129;-83
2023/03/02 10:18:19;;;;;;;5.25;3.75;;;;;;;;;;4978105;28;20038;-81
2023/03/02 10:20:53;;;;;;;5.90;3.90;;;;;;;;;;4996820;28;20029;-81
2023/03/02 10:23:43;;;;;;;5.55;4.00;;;;;;;;;;4980264;28;20017;-83
2023/03/02 10:26:08;;;;;;;6.40;4.00;;;;;;;;;;5005353;28;20434;-84
2023/03/02 10:28:41;;;;;;;10.20;3.60;;;;;;;;;;4990007;28;20064;-84
2023/03/02 10:31:11;;;;;;;4.97;3.53;;;;;;;;;;4979563;28;20026;-80
2023/03/02 10:33:40;;;;;;;4.85;3.38;;;;;;;;;;4998259;28;20030;-82
2023/03/02 10:36:26;;;;;;;7.97;3.28;;;;;;;;;;4980953;28;20433;-85
2023/03/02 10:38:54;;;;;;;4.28;3.17;;;;;;;;;;4992941;28;20032;-81
2023/03/02 10:41:29;;;;;;;4.72;3.45;;;;;;;;;;4993919;28;20026;-80
2023/03/02 10:44:05;;;;;;;4.55;3.33;;;;;;;;;;4984232;28;20096;-81
2023/03/02 10:46:39;;;;;;;5.35;3.28;;;;;;;;;;4976694;28;20149;-81
2023/03/02 10:49:23;;;;;;;4.30;3.45;;;;;;;;;;4976870;28;20033;-81
2023/03/02 10:51:58;;;;;;;5.70;3.50;;;;;;;;;;4982402;28;20069;-81
2023/03/02 10:54:24;;;;;;;3.85;3.05;;;;;;;;;;4995715;28;20095;-79
2023/03/02 10:56:52;;;;;;;4.70;3.13;;;;;;;;;;4980379;28;20029;-79
2023/03/02 10:59:38;;;;;;;4.47;3.40;;;;;;;;;;5014591;28;20469;-79
2023/03/02 11:02:26;;;;;;;4.57;3.05;;;;;;;;;;4996766;28;20026;-81
2023/03/02 11:04:58;;;;;;;4.07;3.38;;;;;;;;;;4999460;28;20029;-82
2023/03/02 11:07:26;;;;;;;4.28;3.22;;;;;;;;;;4999792;28;20167;-80
2023/03/02 11:10:06;;;;;;;4.03;3.13;;;;;;;;;;5016200;28;20471;-81
2023/03/02 11:12:35;;;;;;;5.05;3.20;;;;;;;;;;5016005;28;20067;-83
2023/03/02 11:15:26;;;;;;;4.97;3.30;;;;;;;;;;5033892;28;20033;-82
2023/03/02 11:17:59;;;;;;;4.18;3.25;;;;;;;;;;5033704;28;20070;-82
2023/03/02 11:20:30;;;;;;;3.97;2.95;;;;;;;;;;5015965;28;20361;-82
2023/03/02 11:23:04;;;;;;;4.30;3.17;;;;;;;;;;4999509;28;20491;-81
2023/03/02 11:25:39;;;;;;;3.95;3.13;;;;;;;;;;4999247;28;20184;-81
2023/03/02 11:28:11;;;;;;;3.40;2.60;;;;;;;;;;5016122;28;20025;-82
2023/03/02 11:30:43;;;;;;;4.38;3.33;;;;;;;;;;5015626;28;20029;-81
2023/03/02 11:33:34;;;;;;;3.92;3.22;;;;;;;;;;5016244;28;20021;-81
2023/03/02 11:36:14;;;;;;;5.35;3.35;;;;;;;;;;4994038;28;20408;-82
2023/03/02 11:38:59;;;;;;;5.38;3.50;;;;;;;;;;5016350;28;20092;-82
2023/03/02 11:41:30;;;;;;;4.97;3.13;;;;;;;;;;5015990;28;20056;-82
2023/03/02 11:43:59;;;;;;;4.55;3.10;;;;;;;;;;5032797;28;20093;-85
2023/03/02 11:46:29;;;;;;;4.10;3.10;;;;;;;;;;5016417;28;20045;-83
2023/03/02 11:49:04;;;;;;;4.78;3.40;;;;;;;;;;5034037;28;20056;-84
2023/03/02 11:51:36;;;;;;;5.70;3.95;;;;;;;;;;5000461;28;20029;-82
2023/03/02 11:54:05;;;;;;;7.68;4.00;;;;;;;;;;5016304;28;20021;-81
2023/03/02 11:56:33;;;;;;;12.40;3.95;;;;;;;;;;4999112;28;20025;-82
2023/03/02 11:59:03;;;;;;;7.93;4.43;;;;;;;;;;5016016;28;20029;-82
2023/03/02 12:01:30;;;;;;;7.78;3.72;;;;;;;;;;5015897;28;20115;-83
2023/03/02 12:04:07;;;;;;;4.78;3.58;;;;;;;;;;4999587;28;20021;-83
2023/03/02 12:06:40;;;;;;;6.85;4.20;;;;;;;;;;5015509;28;20030;-82
2023/03/02 12:09:24;;;;;;;6.72;3.85;;;;;;;;;;5015217;28;20032;-82
2023/03/02 12:11:56;;;;;;;5.88;3.45;;;;;;;;;;4998635;28;20052;-81
2023/03/02 12:14:37;;;;;;;5.00;3.72;;;;;;;;;;5015114;28;20346;-81
2023/03/02 12:17:05;;;;;;;6.82;3.95;;;;;;;;;;4998077;28;20519;-81
2023/03/02 12:19:41;;;;;;;11.35;4.35;;;;;;;;;;5014965;28;20030;-81
2023/03/02 12:22:11;;;;;;;5.50;3.72;;;;;;;;;;5014872;28;20451;-81
2023/03/02 12:24:38;;;;;;;6.57;3.83;;;;;;;;;;5015431;28;20040;-81
2023/03/02 12:27:09;;;;;;;9.07;3.60;;;;;;;;;;4998800;28;20029;-82
2023/03/02 12:29:41;;;;;;;6.45;3.90;;;;;;;;;;5032300;28;20032;-81
2023/03/02 12:32:28;;;;;;;10.20;3.85;;;;;;;;;;5014630;28;20036;-81
2023/03/02 12:35:06;;;;;;;5.95;3.95;;;;;;;;;;5015017;28;20041;-81
2023/03/02 12:37:44;;;;;;;4.22;3.42;;;;;;;;;;5014772;28;20021;-81
2023/03/02 12:40:27;;;;;;;8.48;4.10;;;;;;;;;;5032649;28;20017;-81
2023/03/02 12:43:11;;;;;;;5.75;3.70;;;;;;;;;;5032286;28;20025;-82
2023/03/02 12:45:55;;;;;;;7.78;3.58;;;;;;;;;;5032472;28;20021;-81
2023/03/02 12:48:31;;;;;;;8.90;4.00;;;;;;;;;;5015445;28;20091;-81
2023/03/02 12:51:01;;;;;;;9.68;4.10;;;;;;;;;;5032483;28;20049;-82
2023/03/02 12:53:28;;;;;;;7.00;3.65;;;;;;;;;;5014346;28;20032;-81
2023/03/02 12:55:53;;;;;;;5.95;3.20;;;;;;;;;;4983661;28;20447;-81
2023/03/02 12:58:21;;;;;;;6.10;3.30;;;;;;;;;;5014630;28;20029;-81
2023/03/02 13:00:59;;;;;;;3.60;3.08;;;;;;;;;;4998132;28;20025;-81
2023/03/02 13:03:26;;;;;;;8.65;3.58;;;;;;;;;;5014632;28;20013;-80
2023/03/02 13:06:03;;;;;;;4.60;3.10;;;;;;;;;;5014990;28;20057;-81
2023/03/02 13:08:29;;;;;;;6.70;3.40;;;;;;;;;;4997992;28;20483;-81
2023/03/02 13:11:00;;;;;;;3.97;2.92;;;;;;;;;;5014636;28;20037;-81
2023/03/02 13:13:31;;;;;;;4.50;3.03;;;;;;;;;;5014624;28;20502;-81
2023/03/02 13:16:02;;;;;;;8.68;2.92;;;;;;;;;;5032214;28;20094;-81
2023/03/02 13:18:33;;;;;;;5.20;2.70;;;;;;;;;;4998615;28;20106;-81
2023/03/02 13:21:00;;;;;;;7.45;2.88;;;;;;;;;;5014425;28;20476;-81
2023/03/02 13:23:27;;;;;;;3.22;2.50;;;;;;;;;;5014496;28;20430;-81
2023/03/02 13:26:02;;;;;;;3.95;2.60;;;;;;;;;;5015042;28;20040;-81
2023/03/02 13:28:29;;;;;;;4.90;2.70;;;;;;;;;;5014939;28;20021;-81
2023/03/02 13:31:06;;;;;;;2.78;2.17;;;;;;;;;;5035602;28;20052;-81
2023/03/02 13:33:34;;;;;;;2.83;2.53;;;;;;;;;;5001297;28;20366;-81
2023/03/02 13:35:59;;;;;;;3.53;2.45;;;;;;;;;;5000962;28;20484;-81
2023/03/02 13:38:35;;;;;;;3.38;2.05;;;;;;;;;;5017910;28;20116;-81
2023/03/02 13:41:01;;;;;;;3.20;2.10;;;;;;;;;;5002307;28;20114;-82
2023/03/02 13:43:29;;;;;;;3.35;2.10;;;;;;;;;;5001300;28;20022;-80
2023/03/02 13:46:10;;;;;;;2.60;2.28;;;;;;;;;;5017580;28;20030;-79
2023/03/02 13:48:35;;;;;;;2.15;1.92;;;;;;;;;;5018772;28;20128;-78
2023/03/02 13:51:17;;;;;;;2.63;2.05;;;;;;;;;;5018617;28;20068;-81
2023/03/02 13:53:55;;;;;;;3.08;2.10;;;;;;;;;;5017864;28;20083;-81
2023/03/02 13:56:26;;;;;;;2.40;2.10;;;;;;;;;;5018018;28;20026;-81
2023/03/02 13:58:51;;;;;;;3.40;2.20;;;;;;;;;;5017991;28;20388;-82
2023/03/02 14:01:17;;;;;;;3.13;2.28;;;;;;;;;;5001203;28;20116;-81
2023/03/02 14:03:42;;;;;;;2.13;1.90;;;;;;;;;;5017662;28;20412;-81
2023/03/02 14:06:08;;;;;;;2.45;2.25;;;;;;;;;;5001051;28;20041;-80
2023/03/02 14:08:33;;;;;;;3.55;1.95;;;;;;;;;;5001790;28;20427;-84
2023/03/02 14:11:00;;;;;;;2.67;2.30;;;;;;;;;;5017218;28;20026;-82
2023/03/02 14:13:33;;;;;;;3.03;2.30;;;;;;;;;;5035415;28;20189;-83
2023/03/02 14:15:58;;;;;;;2.45;2.15;;;;;;;;;;5017322;28;20075;-82
2023/03/02 14:18:32;;;;;;;3.20;2.25;;;;;;;;;;5017696;28;20120;-83
2023/03/02 14:20:57;;;;;;;2.80;2.10;;;;;;;;;;5001081;28;20167;-83
2023/03/02 14:23:24;;;;;;;2.13;1.80;;;;;;;;;;5016983;28;20100;-86
2023/03/02 14:25:50;;;;;;;3.00;2.28;;;;;;;;;;5017485;28;20053;-83
2023/03/02 14:28:22;;;;;;;2.65;2.20;;;;;;;;;;5016520;28;20435;-82
2023/03/02 14:30:50;;;;;;;3.22;1.90;;;;;;;;;;5000663;28;20029;-85
2023/03/02 14:33:18;;;;;;;2.45;2.25;;;;;;;;;;5016680;28;20088;-82
2023/03/02 14:35:44;;;;;;;5.00;2.25;;;;;;;;;;5015930;28;20396;-82
2023/03/02 14:38:10;;;;;;;2.20;1.95;;;;;;;;;;5033743;28;20037;-80
2023/03/02 14:40:35;;;;;;;3.30;2.35;;;;;;;;;;5015046;28;20396;-80
2023/03/02 14:43:01;;;;;;;5.53;2.50;;;;;;;;;;5015865;28;20041;-80
2023/03/02 14:45:26;;;;;;;2.45;2.22;;;;;;;;;;4999557;28;20427;-80
2023/03/02 14:47:52;;;;;;;4.18;2.83;;;;;;;;;;5016124;28;20148;-82
2023/03/02 14:50:17;;;;;;;3.00;2.65;;;;;;;;;;4999503;28;20056;-82
2023/03/02 14:52:45;;;;;;;6.43;3.30;;;;;;;;;;5033590;28;20116;-83